Time;durP1;ratioP1;P1;durP2;ratioP2;P2;SDS_P1;SDS_P2;PMS_P1;PMS_P2;Temp;Humidity;BMP_temperature;BMP_pressure;BME280_temperature;BME280_humidity;BME280_pressure;Samples;Min_cycle;Max_cycle;Signal;HPM_P1;HPM_P2
2021/08/01 00:01:26;;;;;;;0.50;0.50;;;24.10;62.00;;;;;;5027884;28;20026;-40
2021/08/01 00:03:52;;;;;;;1.75;0.60;;;24.10;62.10;;;;;;5028101;28;20534;-38
2021/08/01 00:06:18;;;;;;;0.50;0.50;;;24.10;62.00;;;;;;5027879;28;20049;-38
2021/08/01 00:08:43;;;;;;;0.60;0.60;;;24.10;62.10;;;;;;5010803;28;20041;-39
2021/08/01 00:11:09;;;;;;;0.60;0.60;;;24.00;62.10;;;;;;5033824;28;20376;-44
2021/08/01 00:13:35;;;;;;;0.88;0.60;;;24.00;62.00;;;;;;5011438;28;20056;-38
2021/08/01 00:16:01;;;;;;;0.50;0.50;;;24.10;61.90;;;;;;5028307;28;20021;-40
2021/08/01 00:18:26;;;;;;;0.70;0.70;;;24.10;62.70;;;;;;5001389;28;20021;-39
2021/08/01 00:20:52;;;;;;;0.52;0.52;;;24.10;61.70;;;;;;5031917;28;20040;-39
2021/08/01 00:23:18;;;;;;;0.60;0.40;;;24.00;61.90;;;;;;5028860;28;20113;-39
2021/08/01 00:25:43;;;;;;;0.80;0.63;;;24.00;61.90;;;;;;5028155;28;20040;-38
2021/08/01 00:28:09;;;;;;;1.10;0.60;;;24.00;61.80;;;;;;5027398;28;20033;-39
2021/08/01 00:30:34;;;;;;;0.50;0.50;;;24.00;61.80;;;;;;5010942;28;20060;-38
2021/08/01 00:33:00;;;;;;;0.60;0.50;;;24.00;62.20;;;;;;5030521;28;20026;-38
2021/08/01 00:35:26;;;;;;;0.50;0.50;;;24.00;61.90;;;;;;5030031;28;20104;-40
2021/08/01 00:37:52;;;;;;;0.52;0.52;;;24.00;61.80;;;;;;5028146;28;20025;-39
2021/08/01 00:40:19;;;;;;;0.60;0.60;;;24.00;62.70;;;;;;5027507;28;20132;-39
2021/08/01 00:42:45;;;;;;;0.57;0.57;;;24.00;62.00;;;;;;5032783;28;20018;-40
2021/08/01 00:45:11;;;;;;;0.63;0.55;;;23.90;61.80;;;;;;5038783;28;20034;-39
2021/08/01 00:47:37;;;;;;;0.70;0.60;;;24.00;61.90;;;;;;5016652;28;20038;-40
2021/08/01 00:50:06;;;;;;;0.65;0.43;;;23.90;61.90;;;;;;5027490;28;20083;-40
2021/08/01 00:52:32;;;;;;;1.92;0.50;;;23.90;61.90;;;;;;5024521;28;20029;-39
2021/08/01 00:54:58;;;;;;;0.63;0.63;;;23.90;61.80;;;;;;5027604;28;20029;-38
2021/08/01 00:57:23;;;;;;;0.80;0.75;;;23.90;61.90;;;;;;5027990;28;20096;-40
2021/08/01 00:59:49;;;;;;;0.60;0.60;;;23.90;61.90;;;;;;5032368;28;20447;-40
2021/08/01 01:02:18;;;;;;;0.50;0.50;;;23.90;61.90;;;;;;5027910;28;20030;-39
2021/08/01 01:05:02;;;;;;;0.60;0.60;;;23.90;61.90;;;;;;5012786;28;20107;-40
2021/08/01 01:07:44;;;;;;;1.23;0.40;;;23.90;61.90;;;;;;5010938;28;20029;-39
2021/08/01 01:10:30;;;;;;;0.52;0.52;;;23.90;61.90;;;;;;5026622;28;20112;-40
2021/08/01 01:13:05;;;;;;;1.60;0.77;;;23.90;61.80;;;;;;5007196;28;20117;-40
2021/08/01 01:15:31;;;;;;;0.55;0.55;;;23.90;61.80;;;;;;5010997;28;20108;-40
2021/08/01 01:17:56;;;;;;;0.95;0.45;;;23.90;61.80;;;;;;5012915;28;20076;-39
2021/08/01 01:20:49;;;;;;;0.65;0.65;;;23.90;61.70;;;;;;5012039;28;20040;-40
2021/08/01 01:23:39;;;;;;;0.50;0.50;;;23.90;61.70;;;;;;4993870;28;20417;-38
2021/08/01 01:26:09;;;;;;;0.52;0.52;;;23.80;61.80;;;;;;5013646;28;20511;-37
2021/08/01 01:28:56;;;;;;;0.43;0.43;;;23.80;61.80;;;;;;4986248;28;20034;-40
2021/08/01 01:31:49;;;;;;;0.43;0.43;;;23.90;61.90;;;;;;5023683;28;20029;-41
2021/08/01 01:34:33;;;;;;;0.57;0.57;;;23.80;61.80;;;;;;5034752;28;20092;-37
2021/08/01 01:37:00;;;;;;;0.57;0.57;;;23.80;61.70;;;;;;5031564;28;20053;-37
2021/08/01 01:39:26;;;;;;;0.57;0.57;;;23.80;61.70;;;;;;5015821;28;20033;-39
2021/08/01 01:41:52;;;;;;;0.60;0.60;;;23.80;61.70;;;;;;5017432;28;20462;-40
2021/08/01 01:44:17;;;;;;;0.60;0.50;;;23.80;61.90;;;;;;5032009;28;20032;-38
2021/08/01 01:46:43;;;;;;;0.40;0.40;;;23.80;61.90;;;;;;5032656;28;20045;-42
2021/08/01 01:49:10;;;;;;;0.60;0.60;;;23.80;62.70;;;;;;5016302;28;20030;-40
2021/08/01 01:51:36;;;;;;;0.40;0.40;;;23.80;62.70;;;;;;5028718;28;20033;-36
2021/08/01 01:54:01;;;;;;;0.50;0.45;;;23.80;61.90;;;;;;5015274;28;20099;-39
2021/08/01 01:56:31;;;;;;;0.50;0.50;;;23.80;61.80;;;;;;5015167;28;20039;-39
2021/08/01 01:58:56;;;;;;;0.50;0.50;;;23.80;62.50;;;;;;5015870;28;20029;-41
2021/08/01 02:01:22;;;;;;;0.52;0.40;;;23.80;61.80;;;;;;5008609;28;20029;-39
2021/08/01 02:03:48;;;;;;;0.50;0.50;;;23.80;61.80;;;;;;5015868;28;20535;-40
2021/08/01 02:06:14;;;;;;;0.43;0.43;;;23.80;61.70;;;;;;5032222;28;20041;-40
2021/08/01 02:09:19;;;;;;;0.73;0.60;;;23.80;61.70;;;;;;4995734;28;20029;-40
2021/08/01 02:11:47;;;;;;;0.60;0.60;;;23.80;61.70;;;;;;4992981;28;20034;-39
2021/08/01 02:14:17;;;;;;;0.40;0.30;;;23.80;61.70;;;;;;4984769;28;20034;-40
2021/08/01 02:16:45;;;;;;;0.45;0.40;;;23.80;61.70;;;;;;4984436;28;20042;-40
2021/08/01 02:19:11;;;;;;;0.60;0.60;;;23.80;61.80;;;;;;4956270;28;20027;-39
2021/08/01 02:21:39;;;;;;;0.40;0.40;;;23.70;61.80;;;;;;4961730;28;20394;-38
2021/08/01 02:24:04;;;;;;;0.63;0.63;;;23.80;61.90;;;;;;4990923;28;20030;-38
2021/08/01 02:26:30;;;;;;;0.50;0.50;;;23.70;61.80;;;;;;4979838;28;20065;-40
2021/08/01 02:28:55;;;;;;;0.43;0.43;;;23.70;62.50;;;;;;4961852;28;20054;-40
2021/08/01 02:31:21;;;;;;;0.50;0.50;;;23.80;61.60;;;;;;4975041;28;20190;-42
2021/08/01 02:33:47;;;;;;;0.35;0.35;;;23.80;61.70;;;;;;4999797;28;20121;-40
2021/08/01 02:36:12;;;;;;;0.50;0.50;;;23.70;61.70;;;;;;4973880;28;20042;-40
2021/08/01 02:38:38;;;;;;;0.50;0.50;;;23.70;62.60;;;;;;4962749;28;20086;-39
2021/08/01 02:41:23;;;;;;;1.20;0.60;;;23.70;61.90;;;;;;4965920;28;20092;-40
2021/08/01 02:43:48;;;;;;;;;;;23.70;61.90;;;;;;4983504;28;20030;-40
2021/08/01 02:46:14;;;;;;;0.52;0.52;;;23.70;61.90;;;;;;4978386;28;20004;-39
2021/08/01 02:48:40;;;;;;;0.80;0.70;;;23.70;61.90;;;;;;4992807;28;20129;-39
2021/08/01 02:51:05;;;;;;;0.40;0.40;;;23.70;61.80;;;;;;5013854;28;20112;-39
2021/08/01 02:53:37;;;;;;;0.40;0.40;;;23.70;61.80;;;;;;5011733;28;20079;-40
2021/08/01 02:56:04;;;;;;;0.40;0.40;;;23.70;62.50;;;;;;5014414;28;20021;-40
2021/08/01 02:58:29;;;;;;;0.50;0.50;;;23.70;61.80;;;;;;4995730;28;20029;-40
2021/08/01 03:00:55;;;;;;;0.60;0.60;;;23.70;61.70;;;;;;5014998;28;20379;-38
2021/08/01 03:03:21;;;;;;;0.50;0.50;;;23.70;61.60;;;;;;5012774;28;20057;-40
2021/08/01 03:05:47;;;;;;;0.43;0.40;;;23.70;61.80;;;;;;5000848;28;20131;-39
2021/08/01 03:08:13;;;;;;;0.22;0.22;;;23.70;61.80;;;;;;5007715;28;20038;-39
2021/08/01 03:10:45;;;;;;;0.57;0.55;;;23.70;61.90;;;;;;5014474;28;20483;-39
2021/08/01 03:13:11;;;;;;;0.60;0.45;;;23.70;62.60;;;;;;5028858;28;20037;-39
2021/08/01 03:15:37;;;;;;;0.80;0.60;;;23.70;61.70;;;;;;5029872;28;20022;-37
2021/08/01 03:18:02;;;;;;;0.40;0.40;;;23.70;61.60;;;;;;5031971;28;20471;-38
2021/08/01 03:20:28;;;;;;;0.57;0.40;;;23.70;61.70;;;;;;5030799;28;20581;-37
2021/08/01 03:22:54;;;;;;;0.40;0.40;;;23.60;62.50;;;;;;5029398;28;20132;-40
2021/08/01 03:25:19;;;;;;;0.40;0.40;;;23.60;62.00;;;;;;5030972;28;20024;-39
2021/08/01 03:27:45;;;;;;;0.40;0.40;;;23.60;61.80;;;;;;5028452;28;20037;-39
2021/08/01 03:30:11;;;;;;;0.40;0.40;;;23.60;61.90;;;;;;5030890;28;20495;-39
2021/08/01 03:32:36;;;;;;;0.63;0.50;;;23.60;61.90;;;;;;5043442;28;20480;-39
2021/08/01 03:35:02;;;;;;;0.40;0.40;;;23.60;61.80;;;;;;5028269;28;20108;-38
2021/08/01 03:37:27;;;;;;;0.45;0.45;;;23.60;61.70;;;;;;5027168;28;20483;-39
2021/08/01 03:39:54;;;;;;;0.32;0.32;;;23.60;61.70;;;;;;5030632;28;20026;-39
2021/08/01 03:42:19;;;;;;;0.30;0.30;;;23.60;61.70;;;;;;5013851;28;20029;-33
2021/08/01 03:44:45;;;;;;;0.40;0.40;;;23.60;61.70;;;;;;5033020;28;20502;-42
2021/08/01 03:47:11;;;;;;;0.40;0.40;;;23.60;61.70;;;;;;5028949;28;20044;-39
2021/08/01 03:49:36;;;;;;;0.30;0.30;;;23.60;61.70;;;;;;5030007;28;20499;-36
2021/08/01 03:52:02;;;;;;;0.40;0.40;;;23.60;61.70;;;;;;5028227;28;20045;-39
2021/08/01 03:54:27;;;;;;;0.55;0.50;;;23.60;61.80;;;;;;5029103;28;20051;-39
2021/08/01 03:56:53;;;;;;;0.88;0.73;;;23.60;61.70;;;;;;5032239;28;20376;-47
2021/08/01 03:59:19;;;;;;;0.45;0.45;;;23.60;61.70;;;;;;5031190;28;20091;-39
2021/08/01 04:01:45;;;;;;;0.38;0.38;;;23.60;61.70;;;;;;5027870;28;20575;-39
2021/08/01 04:04:10;;;;;;;0.40;0.40;;;23.60;61.90;;;;;;5025664;28;20388;-39
2021/08/01 04:06:36;;;;;;;0.45;0.28;;;23.60;61.70;;;;;;5030751;28;20076;-39
2021/08/01 04:09:04;;;;;;;0.30;0.30;;;23.60;61.80;;;;;;5029671;28;20052;-39
2021/08/01 04:11:30;;;;;;;0.30;0.30;;;23.60;61.80;;;;;;5034389;28;20148;-39
2021/08/01 04:13:55;;;;;;;2.50;0.55;;;23.60;61.70;;;;;;5030342;28;20415;-39
2021/08/01 04:16:21;;;;;;;1.20;0.30;;;23.60;61.70;;;;;;5011855;28;20018;-37
2021/08/01 04:18:47;;;;;;;0.30;0.30;;;23.60;61.70;;;;;;5029799;28;20399;-39
2021/08/01 04:21:13;;;;;;;0.35;0.35;;;23.60;62.60;;;;;;5029402;28;20092;-39
2021/08/01 04:23:39;;;;;;;0.40;0.40;;;23.60;61.70;;;;;;5032555;28;20547;-37
2021/08/01 04:26:05;;;;;;;0.40;0.35;;;23.60;61.50;;;;;;5029732;28;20112;-39
2021/08/01 04:28:31;;;;;;;0.30;0.30;;;23.60;61.50;;;;;;5027533;28;20033;-39
2021/08/01 04:30:56;;;;;;;0.40;0.40;;;23.60;62.50;;;;;;5028124;28;20025;-37
2021/08/01 04:33:22;;;;;;;0.40;0.40;;;23.60;61.60;;;;;;5027820;28;20033;-39
2021/08/01 04:35:47;;;;;;;0.30;0.30;;;23.60;61.60;;;;;;5032133;28;20079;-39
2021/08/01 04:38:13;;;;;;;0.30;0.30;;;23.60;62.50;;;;;;5016726;28;20128;-39
2021/08/01 04:40:39;;;;;;;0.20;0.20;;;23.60;61.60;;;;;;5022380;28;20024;-37
2021/08/01 04:43:04;;;;;;;0.43;0.43;;;23.60;61.70;;;;;;5027204;28;20447;-39
2021/08/01 04:45:30;;;;;;;0.45;0.38;;;23.60;61.70;;;;;;5028879;28;20092;-39
2021/08/01 04:47:55;;;;;;;0.65;0.40;;;23.60;61.50;;;;;;5027226;28;20095;-37
2021/08/01 04:50:21;;;;;;;0.30;0.30;;;23.60;61.60;;;;;;5030604;28;20025;-42
2021/08/01 04:52:50;;;;;;;0.38;0.32;;;23.60;61.60;;;;;;5024949;28;20025;-39
2021/08/01 04:55:15;;;;;;;0.30;0.30;;;23.60;61.60;;;;;;5027946;28;20067;-37
2021/08/01 04:57:41;;;;;;;0.63;0.50;;;23.50;61.70;;;;;;5027292;28;20029;-37
2021/08/01 05:00:07;;;;;;;0.40;0.35;;;23.50;61.80;;;;;;5026414;28;20029;-39
2021/08/01 05:02:32;;;;;;;0.30;0.30;;;23.60;61.70;;;;;;5034721;28;20487;-38
2021/08/01 05:05:03;;;;;;;0.20;0.20;;;23.50;61.60;;;;;;5026576;28;20049;-37
2021/08/01 05:07:29;;;;;;;0.30;0.30;;;23.50;61.70;;;;;;5028523;28;20029;-39
2021/08/01 05:09:55;;;;;;;0.32;0.28;;;23.60;61.50;;;;;;5027454;28;20574;-38
2021/08/01 05:12:20;;;;;;;0.30;0.30;;;23.50;61.60;;;;;;5013005;28;20100;-39
2021/08/01 05:14:46;;;;;;;0.20;0.20;;;23.50;61.60;;;;;;5031862;28;20386;-38
2021/08/01 05:17:14;;;;;;;0.35;0.35;;;23.60;61.60;;;;;;5027358;28;20091;-39
2021/08/01 05:19:40;;;;;;;0.32;0.30;;;23.50;61.50;;;;;;5026838;28;20034;-36
2021/08/01 05:22:06;;;;;;;0.75;0.50;;;23.50;61.50;;;;;;5029030;28;20025;-39
2021/08/01 05:24:35;;;;;;;0.20;0.20;;;23.50;61.50;;;;;;5026848;28;20034;-39
2021/08/01 05:27:00;;;;;;;0.20;0.20;;;23.60;61.30;;;;;;5029995;28;20057;-41
2021/08/01 05:29:26;;;;;;;0.88;0.40;;;23.60;61.30;;;;;;5028399;28;20077;-37
2021/08/01 05:31:51;;;;;;;0.40;0.40;;;23.50;61.40;;;;;;5027445;28;20025;-39
2021/08/01 05:34:17;;;;;;;0.35;0.30;;;23.50;61.80;;;;;;5027597;28;20034;-39
2021/08/01 05:36:42;;;;;;;0.40;0.40;;;23.50;61.60;;;;;;5033733;28;20292;-39
2021/08/01 05:39:08;;;;;;;0.50;0.50;;;23.50;61.50;;;;;;5025095;28;20492;-38
2021/08/01 05:41:33;;;;;;;0.30;0.30;;;23.50;61.50;;;;;;5031474;28;20025;-38
2021/08/01 05:43:59;;;;;;;0.30;0.30;;;23.50;61.50;;;;;;5012017;28;20120;-38
2021/08/01 05:46:24;;;;;;;0.55;0.55;;;23.50;61.40;;;;;;5026644;28;20033;-39
2021/08/01 05:48:50;;;;;;;0.20;0.20;;;23.50;61.30;;;;;;5034065;28;20049;-39
2021/08/01 05:51:16;;;;;;;0.20;0.13;;;23.50;62.30;;;;;;5040075;28;20026;-39
2021/08/01 05:53:41;;;;;;;0.40;0.30;;;23.50;61.30;;;;;;5028132;28;20021;-39
2021/08/01 05:56:10;;;;;;;0.20;0.20;;;23.50;61.30;;;;;;5030204;28;20025;-38
2021/08/01 05:58:37;;;;;;;0.40;0.30;;;23.50;61.40;;;;;;5021240;28;20022;-40
2021/08/01 06:01:09;;;;;;;0.45;0.30;;;23.50;61.30;;;;;;5027461;28;20029;-39
2021/08/01 06:03:35;;;;;;;0.30;0.30;;;23.50;61.50;;;;;;5035778;28;20029;-39
2021/08/01 06:06:11;;;;;;;0.20;0.20;;;23.50;62.20;;;;;;5030033;28;20119;-39
2021/08/01 06:08:38;;;;;;;0.40;0.40;;;23.50;61.40;;;;;;5019669;28;20077;-38
2021/08/01 06:11:04;;;;;;;0.32;0.32;;;23.50;61.40;;;;;;5025146;28;20030;-39
2021/08/01 06:13:30;;;;;;;1.20;0.40;;;23.50;61.50;;;;;;5028191;28;20029;-42
2021/08/01 06:15:56;;;;;;;0.60;0.45;;;23.40;61.50;;;;;;5025348;28;20092;-38
2021/08/01 06:18:21;;;;;;;0.30;0.30;;;23.50;61.50;;;;;;5031512;28;20029;-37
2021/08/01 06:20:47;;;;;;;1.38;0.30;;;23.50;61.70;;;;;;5030519;28;20029;-38
2021/08/01 06:23:12;;;;;;;0.43;0.43;;;23.50;61.60;;;;;;4676588;28;10000304;-39
2021/08/01 06:25:38;;;;;;;0.20;0.20;;;23.40;61.70;;;;;;5026229;28;20029;-38
2021/08/01 06:28:07;;;;;;;0.20;0.20;;;23.40;61.60;;;;;;5025537;28;20040;-39
2021/08/01 06:30:32;;;;;;;1.80;0.40;;;23.50;61.50;;;;;;5025441;28;20613;-41
2021/08/01 06:32:58;;;;;;;0.40;0.40;;;23.50;61.50;;;;;;5017854;28;20062;-40
2021/08/01 06:35:23;;;;;;;0.57;0.47;;;23.50;61.60;;;;;;5028747;28;20057;-40
2021/08/01 06:37:49;;;;;;;0.38;0.30;;;23.50;61.50;;;;;;5020463;28;20101;-40
2021/08/01 06:40:17;;;;;;;0.50;0.40;;;23.40;61.90;;;;;;5020796;28;20026;-39
2021/08/01 06:42:45;;;;;;;0.28;0.28;;;23.30;62.10;;;;;;5029133;28;20042;-38
2021/08/01 06:45:11;;;;;;;0.45;0.32;;;23.30;62.20;;;;;;5012568;28;20034;-47
2021/08/01 06:47:36;;;;;;;0.43;0.30;;;23.30;62.10;;;;;;5005695;28;20080;-41
2021/08/01 06:50:02;;;;;;;0.30;0.30;;;23.20;62.00;;;;;;5004045;28;20036;-44
2021/08/01 06:52:28;;;;;;;0.57;0.40;;;23.20;61.90;;;;;;4998165;28;20377;-49
2021/08/01 06:54:53;;;;;;;0.32;0.32;;;23.20;61.70;;;;;;5002401;28;20614;-45
2021/08/01 06:57:19;;;;;;;2.20;0.60;;;23.20;61.30;;;;;;5000737;28;20144;-41
2021/08/01 06:59:44;;;;;;;0.30;0.30;;;23.20;61.30;;;;;;5015577;28;20101;-45
2021/08/01 07:02:10;;;;;;;0.50;0.50;;;23.30;61.40;;;;;;5022302;28;20423;-43
2021/08/01 07:04:36;;;;;;;0.50;0.50;;;23.30;60.90;;;;;;5020152;28;20052;-43
2021/08/01 07:07:01;;;;;;;0.65;0.52;;;23.20;60.30;;;;;;5025256;28;20107;-42
2021/08/01 07:09:27;;;;;;;0.50;0.50;;;23.20;60.30;;;;;;5013641;28;20029;-45
2021/08/01 07:11:53;;;;;;;0.60;0.60;;;23.10;60.10;;;;;;5017579;28;20660;-43
2021/08/01 07:14:19;;;;;;;0.32;0.30;;;23.20;59.90;;;;;;5022793;28;20030;-45
2021/08/01 07:16:44;;;;;;;0.30;0.30;;;23.30;60.20;;;;;;5023396;28;20025;-42
2021/08/01 07:19:10;;;;;;;0.85;0.73;;;23.30;59.60;;;;;;5024486;28;20491;-46
2021/08/01 07:21:36;;;;;;;0.90;0.60;;;23.20;59.70;;;;;;5027387;28;20026;-38
2021/08/01 07:24:02;;;;;;;0.55;0.50;;;23.20;59.30;;;;;;5028157;28;20499;-38
2021/08/01 07:26:28;;;;;;;0.60;0.55;;;23.20;59.40;;;;;;5019958;28;20120;-40
2021/08/01 07:28:53;;;;;;;0.40;0.40;;;23.20;59.10;;;;;;5023160;28;20492;-37
2021/08/01 07:31:19;;;;;;;0.68;0.45;;;23.20;59.30;;;;;;5024854;28;20043;-44
2021/08/01 07:33:44;;;;;;;1.33;0.50;;;23.20;59.10;;;;;;5025170;28;20613;-40
2021/08/01 07:36:10;;;;;;;1.52;0.50;;;23.20;59.00;;;;;;5026359;28;20048;-40
2021/08/01 07:38:35;;;;;;;0.40;0.40;;;23.20;58.90;;;;;;5028988;28;20022;-40
2021/08/01 07:41:01;;;;;;;0.60;0.60;;;23.20;58.90;;;;;;5026702;28;20116;-40
2021/08/01 07:43:27;;;;;;;0.98;0.40;;;23.20;58.80;;;;;;5006315;28;20120;-39
2021/08/01 07:45:52;;;;;;;0.32;0.32;;;23.20;58.70;;;;;;5021467;28;20409;-39
2021/08/01 07:48:18;;;;;;;0.50;0.43;;;23.20;58.90;;;;;;5019937;28;20072;-38
2021/08/01 07:50:43;;;;;;;0.80;0.47;;;23.20;58.90;;;;;;5022075;28;20042;-40
2021/08/01 07:53:09;;;;;;;0.40;0.35;;;23.20;59.40;;;;;;5021223;28;20033;-39
2021/08/01 07:55:35;;;;;;;0.80;0.55;;;23.30;58.90;;;;;;5021274;28;20034;-40
2021/08/01 07:58:00;;;;;;;5.88;0.60;;;23.30;58.80;;;;;;5016806;28;20037;-40
2021/08/01 08:00:26;;;;;;;2.00;0.60;;;23.20;58.80;;;;;;5012436;28;20033;-40
2021/08/01 08:02:51;;;;;;;0.50;0.50;;;23.30;58.80;;;;;;5025779;28;20038;-40
2021/08/01 08:05:17;;;;;;;1.77;0.55;;;23.30;58.80;;;;;;5012931;28;20064;-40
2021/08/01 08:07:43;;;;;;;0.68;0.43;;;23.30;59.00;;;;;;5015816;28;20314;-41
2021/08/01 08:10:09;;;;;;;1.50;0.38;;;23.30;59.30;;;;;;5015631;28;20127;-39
2021/08/01 08:12:35;;;;;;;0.88;0.60;;;23.30;59.20;;;;;;5024028;28;20033;-41
2021/08/01 08:15:00;;;;;;;0.40;0.40;;;23.40;59.30;;;;;;5020711;28;20029;-39
2021/08/01 08:17:26;;;;;;;1.08;0.60;;;23.50;59.40;;;;;;5007953;28;20041;-36
2021/08/01 08:19:52;;;;;;;0.50;0.47;;;23.50;59.90;;;;;;5023729;28;20025;-37
2021/08/01 08:22:17;;;;;;;0.75;0.50;;;23.50;60.60;;;;;;5023997;28;20084;-41
2021/08/01 08:24:43;;;;;;;0.57;0.45;;;23.50;60.20;;;;;;5021327;28;20048;-43
2021/08/01 08:27:08;;;;;;;0.77;0.40;;;23.60;60.10;;;;;;5022413;28;20048;-38
2021/08/01 08:29:34;;;;;;;0.60;0.60;;;23.60;60.10;;;;;;5025250;28;20502;-41
2021/08/01 08:32:00;;;;;;;0.93;0.50;;;23.60;60.10;;;;;;5015100;28;20030;-38
2021/08/01 08:34:25;;;;;;;2.75;0.68;;;23.50;60.10;;;;;;5019212;28;20029;-42
2021/08/01 08:36:52;;;;;;;0.70;0.50;;;23.50;60.10;;;;;;5009855;28;20056;-45
2021/08/01 08:39:19;;;;;;;0.68;0.60;;;23.50;60.00;;;;;;5015409;28;20025;-39
2021/08/01 08:41:45;;;;;;;0.68;0.50;;;23.50;60.10;;;;;;5025865;28;20543;-42
2021/08/01 08:44:11;;;;;;;1.15;0.50;;;23.50;60.00;;;;;;5016001;28;20109;-42
2021/08/01 08:46:37;;;;;;;0.40;0.30;;;23.50;60.00;;;;;;5017915;28;20078;-42
2021/08/01 08:49:21;;;;;;;0.75;0.43;;;23.50;60.30;;;;;;5017999;28;20033;-38
2021/08/01 08:51:48;;;;;;;0.60;0.60;;;23.40;59.90;;;;;;5021336;28;20021;-43
2021/08/01 08:54:15;;;;;;;1.98;0.50;;;23.40;60.00;;;;;;5017416;28;20053;-41
2021/08/01 08:56:41;;;;;;;1.00;0.60;;;23.50;59.90;;;;;;5018509;28;20021;-39
2021/08/01 08:59:07;;;;;;;0.80;0.50;;;23.50;59.70;;;;;;5020770;28;20026;-40
2021/08/01 09:01:36;;;;;;;0.43;0.43;;;23.50;59.70;;;;;;5005511;28;20078;-42
2021/08/01 09:04:01;;;;;;;0.73;0.55;;;23.50;59.60;;;;;;5020651;28;20033;-40
2021/08/01 09:06:28;;;;;;;1.50;0.77;;;23.50;59.90;;;;;;5006026;28;20049;-44
2021/08/01 09:08:54;;;;;;;0.55;0.50;;;23.50;59.80;;;;;;5000832;28;20078;-46
2021/08/01 09:11:19;;;;;;;0.50;0.50;;;23.50;59.60;;;;;;5024051;28;20122;-45
2021/08/01 09:13:45;;;;;;;0.60;0.55;;;23.50;59.50;;;;;;5024779;28;20041;-44
2021/08/01 09:16:11;;;;;;;1.38;0.60;;;23.50;60.10;;;;;;5022969;28;20022;-41
2021/08/01 09:18:37;;;;;;;1.15;0.75;;;23.40;59.70;;;;;;5019139;28;20113;-45
2021/08/01 09:21:02;;;;;;;1.10;1.00;;;23.40;59.30;;;;;;5016868;28;20403;-43
2021/08/01 09:23:28;;;;;;;0.57;0.50;;;23.30;59.50;;;;;;5017482;28;20041;-43
2021/08/01 09:25:58;;;;;;;2.10;0.70;;;23.30;59.30;;;;;;5018847;28;20480;-43
2021/08/01 09:28:25;;;;;;;0.80;0.50;;;23.20;59.30;;;;;;5023794;28;20068;-39
2021/08/01 09:31:00;;;;;;;1.38;0.80;;;23.30;59.30;;;;;;5022500;28;20032;-38
2021/08/01 09:33:31;;;;;;;0.45;0.40;;;23.20;59.10;;;;;;5018584;28;20029;-39
2021/08/01 09:36:16;;;;;;;0.77;0.68;;;23.20;59.90;;;;;;5017159;28;20061;-38
2021/08/01 09:38:55;;;;;;;0.70;0.60;;;23.20;59.40;;;;;;5013447;28;20479;-38
2021/08/01 09:41:32;;;;;;;0.90;0.77;;;23.30;59.50;;;;;;5024895;28;20017;-42
2021/08/01 09:44:01;;;;;;;0.80;0.80;;;23.20;59.30;;;;;;5019105;28;20029;-38
2021/08/01 09:46:43;;;;;;;2.17;0.80;;;23.30;59.40;;;;;;5013713;28;20120;-38
2021/08/01 09:49:09;;;;;;;0.98;0.90;;;23.30;59.50;;;;;;5022475;28;20069;-39
2021/08/01 09:51:42;;;;;;;0.70;0.70;;;23.40;59.20;;;;;;5021902;28;20492;-37
2021/08/01 09:54:08;;;;;;;0.60;0.60;;;23.40;59.00;;;;;;5007068;28;20408;-39
2021/08/01 09:56:34;;;;;;;0.70;0.70;;;23.40;58.70;;;;;;5004693;28;20036;-39
2021/08/01 09:59:02;;;;;;;0.80;0.80;;;23.40;58.90;;;;;;5022145;28;20499;-41
2021/08/01 10:01:27;;;;;;;0.60;0.60;;;23.40;59.00;;;;;;5011009;28;20112;-39
2021/08/01 10:03:53;;;;;;;1.27;0.60;;;23.40;58.60;;;;;;5003124;28;20116;-40
2021/08/01 10:06:22;;;;;;;1.10;0.75;;;23.30;58.60;;;;;;5017816;28;20061;-42
2021/08/01 10:08:54;;;;;;;1.30;1.20;;;23.40;58.70;;;;;;5028943;28;20033;-41
2021/08/01 10:11:24;;;;;;;1.40;0.75;;;23.40;58.60;;;;;;5029151;28;20033;-41
2021/08/01 10:13:53;;;;;;;1.40;0.80;;;23.40;58.40;;;;;;5025501;28;20078;-41
2021/08/01 10:16:19;;;;;;;1.52;0.90;;;23.40;58.90;;;;;;5020576;28;20025;-37
2021/08/01 10:18:45;;;;;;;1.30;0.70;;;23.40;58.10;;;;;;5015737;28;20041;-40
2021/08/01 10:21:15;;;;;;;2.17;0.90;;;23.40;58.30;;;;;;5027607;28;20399;-40
2021/08/01 10:23:52;;;;;;;0.65;0.65;;;23.30;58.30;;;;;;5002550;28;20025;-38
2021/08/01 10:26:19;;;;;;;0.70;0.70;;;23.40;58.20;;;;;;5005851;28;20029;-41
2021/08/01 10:28:55;;;;;;;0.88;0.85;;;23.40;58.20;;;;;;5022985;28;20518;-41
2021/08/01 10:31:34;;;;;;;2.65;0.63;;;23.40;58.10;;;;;;5004081;28;20465;-39
2021/08/01 10:34:27;;;;;;;0.73;0.70;;;23.40;58.00;;;;;;5020670;28;20083;-35
2021/08/01 10:36:53;;;;;;;2.60;0.70;;;23.40;58.10;;;;;;5011035;28;20030;-36
2021/08/01 10:39:19;;;;;;;1.35;0.70;;;23.40;58.20;;;;;;5008578;28;20021;-38
2021/08/01 10:41:44;;;;;;;1.25;0.73;;;23.50;58.60;;;;;;5003855;28;20392;-37
2021/08/01 10:44:11;;;;;;;1.17;0.80;;;23.40;59.00;;;;;;5004365;28;20033;-39
2021/08/01 10:46:38;;;;;;;0.90;0.90;;;23.40;58.30;;;;;;5006586;28;20505;-40
2021/08/01 10:49:03;;;;;;;1.35;0.82;;;23.50;59.20;;;;;;5007200;28;20049;-40
2021/08/01 10:51:29;;;;;;;1.13;1.00;;;23.50;58.40;;;;;;4988790;28;20034;-39
2021/08/01 10:54:20;;;;;;;2.00;1.27;;;23.50;59.00;;;;;;5010288;28;20036;-39
2021/08/01 10:56:46;;;;;;;0.98;0.98;;;23.50;59.10;;;;;;5029650;28;20110;-44
2021/08/01 10:59:43;;;;;;;1.17;1.10;;;23.50;59.10;;;;;;5021601;28;20045;-37
2021/08/01 11:02:14;;;;;;;2.15;0.85;;;23.50;59.60;;;;;;5024110;28;20061;-39
2021/08/01 11:04:41;;;;;;;1.15;1.15;;;23.50;59.30;;;;;;5023594;28;20041;-38
2021/08/01 11:07:06;;;;;;;2.28;1.20;;;23.50;60.20;;;;;;5020391;28;20121;-43
2021/08/01 11:09:32;;;;;;;0.90;0.90;;;23.50;60.10;;;;;;5016489;28;20148;-45
2021/08/01 11:12:19;;;;;;;1.13;1.00;;;23.50;60.20;;;;;;5018400;28;21476;-38
2021/08/01 11:14:49;;;;;;;1.15;0.98;;;23.50;60.00;;;;;;5023841;28;20068;-37
2021/08/01 11:17:17;;;;;;;0.80;0.80;;;23.50;60.90;;;;;;5020248;28;20116;-40
2021/08/01 11:19:42;;;;;;;2.25;1.00;;;23.50;60.80;;;;;;5020486;28;20033;-40
2021/08/01 11:22:30;;;;;;;1.30;1.00;;;23.50;60.40;;;;;;5023626;28;20121;-38
2021/08/01 11:25:27;;;;;;;0.85;0.80;;;23.50;61.10;;;;;;5006549;28;20692;-42
2021/08/01 11:28:12;;;;;;;0.93;0.93;;;23.50;61.20;;;;;;5018482;28;20042;-39
2021/08/01 11:30:56;;;;;;;1.10;1.10;;;23.60;60.30;;;;;;5024037;28;20045;-39
2021/08/01 11:33:43;;;;;;;0.77;0.77;;;23.60;60.70;;;;;;5026772;28;20037;-42
2021/08/01 11:36:17;;;;;;;1.08;1.08;;;23.60;60.80;;;;;;5016042;28;20061;-36
2021/08/01 11:38:52;;;;;;;0.80;0.80;;;23.50;59.90;;;;;;5025569;28;20076;-39
2021/08/01 11:44:04;;;;;;;0.80;0.80;;;23.50;60.40;;;;;;5022066;28;20049;-35
2021/08/01 11:46:45;;;;;;;0.90;0.90;;;23.60;61.30;;;;;;5019364;28;20057;-40
2021/08/01 11:49:10;;;;;;;1.15;1.02;;;23.60;60.60;;;;;;5014371;28;20094;-45
2021/08/01 11:51:41;;;;;;;0.80;0.80;;;23.60;60.30;;;;;;4990226;28;20460;-46
2021/08/01 11:54:06;;;;;;;1.20;0.95;;;23.60;60.60;;;;;;4989721;28;20038;-44
2021/08/01 11:56:32;;;;;;;0.70;0.70;;;23.60;60.60;;;;;;5006562;28;20066;-44
2021/08/01 11:58:58;;;;;;;1.42;1.00;;;23.70;60.80;;;;;;5006101;28;20030;-43
2021/08/01 12:01:23;;;;;;;0.70;0.70;;;23.70;60.20;;;;;;4989708;28;20033;-47
2021/08/01 12:03:49;;;;;;;0.70;0.70;;;23.70;60.20;;;;;;4988731;28;20407;-49
2021/08/01 12:06:38;;;;;;;1.13;1.00;;;23.70;60.30;;;;;;5008060;28;20095;-44
2021/08/01 12:09:30;;;;;;;1.90;1.05;;;23.70;60.70;;;;;;5005546;28;20041;-49
2021/08/01 12:12:00;;;;;;;0.85;0.85;;;23.70;60.00;;;;;;5008850;28;20045;-45
2021/08/01 12:14:36;;;;;;;0.80;0.73;;;23.70;61.10;;;;;;5015368;28;20029;-45
2021/08/01 12:17:04;;;;;;;0.75;0.70;;;23.80;59.90;;;;;;5015787;28;20024;-50
2021/08/01 12:19:34;;;;;;;2.00;0.80;;;23.80;60.50;;;;;;5017938;28;20507;-43
2021/08/01 12:22:07;;;;;;;0.70;0.70;;;23.80;60.50;;;;;;5009956;28;20037;-43
2021/08/01 12:24:40;;;;;;;0.70;0.70;;;23.80;59.50;;;;;;5017614;28;20041;-43
2021/08/01 12:27:18;;;;;;;0.88;0.88;;;23.80;61.10;;;;;;5020449;28;20041;-44
2021/08/01 12:29:44;;;;;;;0.85;0.85;;;23.80;59.60;;;;;;5020037;28;20030;-43
2021/08/01 12:32:16;;;;;;;0.90;0.80;;;23.90;60.00;;;;;;5011895;28;20530;-44
2021/08/01 12:34:42;;;;;;;0.60;0.60;;;23.90;60.30;;;;;;5013632;28;20026;-39
2021/08/01 12:37:08;;;;;;;1.98;0.60;;;23.90;59.70;;;;;;4999090;28;20022;-39
2021/08/01 12:39:43;;;;;;;0.80;0.80;;;23.90;59.60;;;;;;5016017;28;20128;-38
2021/08/01 12:42:09;;;;;;;1.13;0.88;;;23.90;60.00;;;;;;4997892;28;20021;-40
2021/08/01 12:44:35;;;;;;;2.30;1.10;;;23.90;59.90;;;;;;5015299;28;20087;-40
2021/08/01 12:47:06;;;;;;;1.02;0.90;;;23.90;60.00;;;;;;5014161;28;20036;-40
2021/08/01 12:49:32;;;;;;;1.50;0.70;;;23.90;59.50;;;;;;5000739;28;20030;-39
2021/08/01 12:51:58;;;;;;;1.20;1.10;;;23.90;59.70;;;;;;4981355;28;20414;-43
2021/08/01 12:54:24;;;;;;;1.00;0.70;;;23.90;59.90;;;;;;4998315;28;20018;-49
2021/08/01 12:57:08;;;;;;;0.70;0.70;;;24.00;59.30;;;;;;5003398;28;20051;-46